Time;durP1;ratioP1;P1;durP2;ratioP2;P2;SDS_P1;SDS_P2;PMS_P1;PMS_P2;Temp;Humidity;BMP_temperature;BMP_pressure;BME280_temperature;BME280_humidity;BME280_pressure;Samples;Min_cycle;Max_cycle;Signal;HPM_P1;HPM_P2
2023/05/06 11:17:59;;;;;;;5.45;1.50;;;;;;;;;;6709170;19;27794;-77
2023/05/06 11:20:25;;;;;;;3.80;1.40;;;;;;;;;;7349214;19;20353;-76
2023/05/06 11:22:51;;;;;;;4.88;1.33;;;;;;;;;;7363180;19;20002;-76
2023/05/06 11:25:34;;;;;;;4.55;1.50;;;;;;;;;;7342351;19;20596;-76
2023/05/06 11:28:00;;;;;;;3.83;1.35;;;;;;;;;;7335118;19;20053;-77
2023/05/06 11:30:25;;;;;;;4.32;1.77;;;;;;;;;;7348001;19;21126;-77
2023/05/06 11:32:52;;;;;;;6.50;1.80;;;;;;;;;;7357087;19;20026;-77
2023/05/06 11:35:17;;;;;;;6.40;1.90;;;;;;;;;;7354174;19;20474;-77
2023/05/06 11:37:42;;;;;;;4.93;1.73;;;;;;;;;;7364627;19;20002;-77
2023/05/06 11:40:14;;;;;;;4.00;1.38;;;;;;;;;;7357162;19;20256;-76
2023/05/06 11:42:39;;;;;;;4.28;1.58;;;;;;;;;;7357306;19;20074;-77
2023/05/06 11:45:05;;;;;;;5.40;1.60;;;;;;;;;;7356321;19;20494;-77
2023/05/06 11:47:30;;;;;;;9.32;1.90;;;;;;;;;;7363226;19;20795;-77
2023/05/06 11:49:57;;;;;;;10.30;1.93;;;;;;;;;;7348942;19;20039;-77
2023/05/06 11:52:22;;;;;;;4.15;1.60;;;;;;;;;;7352242;19;20406;-78
2023/05/06 11:54:49;;;;;;;7.13;1.40;;;;;;;;;;7359041;19;20038;-76
2023/05/06 11:57:14;;;;;;;4.38;1.40;;;;;;;;;;7365910;19;20262;-77
2023/05/06 11:59:40;;;;;;;6.43;1.70;;;;;;;;;;7363104;19;19998;-77
2023/05/06 12:02:06;;;;;;;7.32;1.65;;;;;;;;;;7349831;19;19998;-77
2023/05/06 12:04:38;;;;;;;4.00;1.35;;;;;;;;;;7362225;19;20015;-76
2023/05/06 12:07:04;;;;;;;4.78;1.67;;;;;;;;;;7362262;19;20047;-77
2023/05/06 12:09:29;;;;;;;4.47;1.60;;;;;;;;;;7369063;19;20043;-76
2023/05/06 12:11:55;;;;;;;5.95;1.60;;;;;;;;;;7365162;19;20002;-76
2023/05/06 12:14:20;;;;;;;6.03;1.42;;;;;;;;;;7370175;19;19999;-76
2023/05/06 12:16:45;;;;;;;4.63;1.40;;;;;;;;;;7358690;19;20002;-77
2023/05/06 12:19:11;;;;;;;2.90;0.90;;;;;;;;;;7356382;19;20415;-75
2023/05/06 12:21:37;;;;;;;3.00;0.90;;;;;;;;;;7364094;19;20028;-75
2023/05/06 12:24:02;;;;;;;3.60;0.85;;;;;;;;;;7368625;19;20414;-76
2023/05/06 12:26:28;;;;;;;4.25;0.82;;;;;;;;;;7367875;19;20146;-76
2023/05/06 12:29:04;;;;;;;2.88;0.90;;;;;;;;;;7366036;19;20006;-76
2023/05/06 12:31:29;;;;;;;3.22;0.93;;;;;;;;;;7360864;19;20026;-76
2023/05/06 12:33:55;;;;;;;4.43;1.00;;;;;;;;;;7354915;19;20003;-76
2023/05/06 12:36:20;;;;;;;5.45;0.82;;;;;;;;;;7365112;19;20819;-76
2023/05/06 12:38:50;;;;;;;7.00;1.02;;;;;;;;;;7367545;19;20082;-75
2023/05/06 12:41:15;;;;;;;3.20;1.20;;;;;;;;;;7363179;19;20107;-76
2023/05/06 12:43:40;;;;;;;2.60;0.90;;;;;;;;;;7356659;19;20046;-75
2023/05/06 12:46:06;;;;;;;2.77;0.90;;;;;;;;;;7363290;19;20258;-76
2023/05/06 12:48:31;;;;;;;2.80;0.90;;;;;;;;;;7359569;19;20242;-76
2023/05/06 12:50:57;;;;;;;1.80;0.68;;;;;;;;;;7362441;19;20063;-76
2023/05/06 12:53:32;;;;;;;3.60;0.90;;;;;;;;;;7356036;19;20033;-76
2023/05/06 12:55:57;;;;;;;2.55;0.80;;;;;;;;;;7364315;19;20669;-76
2023/05/06 12:58:22;;;;;;;3.03;1.00;;;;;;;;;;7364543;19;20002;-76
2023/05/06 13:00:48;;;;;;;3.47;1.08;;;;;;;;;;7345905;19;20643;-76
2023/05/06 13:03:13;;;;;;;4.07;1.15;;;;;;;;;;7337079;19;20268;-76
2023/05/06 13:05:38;;;;;;;5.03;1.50;;;;;;;;;;7362100;19;20117;-76
2023/05/06 13:08:04;;;;;;;5.05;1.20;;;;;;;;;;7349917;19;20880;-77
2023/05/06 13:10:29;;;;;;;3.47;1.10;;;;;;;;;;7364893;19;20032;-77
2023/05/06 13:12:54;;;;;;;5.57;1.45;;;;;;;;;;7359332;19;20090;-76
2023/05/06 13:15:20;;;;;;;4.53;1.50;;;;;;;;;;7362167;19;20002;-76
2023/05/06 13:17:45;;;;;;;4.53;1.27;;;;;;;;;;7359485;19;20015;-76
2023/05/06 13:20:11;;;;;;;4.23;1.37;;;;;;;;;;7358887;19;20014;-76
2023/05/06 13:22:37;;;;;;;4.55;1.27;;;;;;;;;;7364948;19;20242;-75
2023/05/06 13:25:02;;;;;;;4.65;1.52;;;;;;;;;;7360676;19;19999;-76
2023/05/06 13:27:30;;;;;;;6.97;1.65;;;;;;;;;;7364148;19;20006;-76
2023/05/06 13:29:56;;;;;;;5.60;1.83;;;;;;;;;;7359375;19;20301;-76
2023/05/06 13:32:21;;;;;;;5.07;1.40;;;;;;;;;;7350159;19;19997;-76
2023/05/06 13:34:46;;;;;;;5.43;1.47;;;;;;;;;;7351752;19;20420;-75
2023/05/06 13:37:11;;;;;;;5.73;1.60;;;;;;;;;;7360549;19;20010;-75
2023/05/06 13:39:36;;;;;;;4.20;1.27;;;;;;;;;;7360225;19;20278;-76
2023/05/06 13:42:02;;;;;;;6.15;1.55;;;;;;;;;;7362491;19;20447;-76
2023/05/06 13:44:28;;;;;;;4.40;1.48;;;;;;;;;;7356084;19;20044;-75
2023/05/06 13:46:53;;;;;;;4.87;1.67;;;;;;;;;;7360484;19;20017;-76
2023/05/06 13:49:18;;;;;;;5.33;1.47;;;;;;;;;;7355384;19;20033;-75
2023/05/06 13:51:43;;;;;;;5.53;1.63;;;;;;;;;;7360399;19;20014;-74
2023/05/06 13:54:09;;;;;;;4.65;1.52;;;;;;;;;;7360157;19;20320;-74
2023/05/06 13:56:34;;;;;;;4.57;1.65;;;;;;;;;;7362104;19;20476;-74
2023/05/06 13:58:59;;;;;;;6.60;1.52;;;;;;;;;;7354997;19;20017;-75
2023/05/06 14:01:24;;;;;;;4.28;1.15;;;;;;;;;;7351175;19;20369;-74
2023/05/06 14:03:50;;;;;;;4.53;1.33;;;;;;;;;;7345117;19;20050;-74
2023/05/06 14:06:15;;;;;;;5.38;1.60;;;;;;;;;;7354799;19;20399;-74
2023/05/06 14:08:41;;;;;;;4.60;1.20;;;;;;;;;;7363495;19;20424;-74
2023/05/06 14:11:06;;;;;;;3.95;1.20;;;;;;;;;;7359127;19;20566;-75
2023/05/06 14:13:32;;;;;;;3.47;1.20;;;;;;;;;;7363139;19;20066;-75
2023/05/06 14:15:57;;;;;;;4.93;1.60;;;;;;;;;;7359907;19;20001;-75
2023/05/06 14:18:23;;;;;;;4.72;1.55;;;;;;;;;;7357784;19;20084;-75
2023/05/06 14:20:49;;;;;;;5.65;1.23;;;;;;;;;;7365497;19;20119;-74
2023/05/06 14:23:14;;;;;;;4.63;1.50;;;;;;;;;;7350555;19;20311;-75
2023/05/06 14:25:39;;;;;;;5.20;1.70;;;;;;;;;;7368654;19;20382;-75
2023/05/06 14:28:04;;;;;;;4.13;1.40;;;;;;;;;;7294325;19;20073;-75
2023/05/06 14:30:31;;;;;;;5.68;1.70;;;;;;;;;;7328798;19;20263;-75
2023/05/06 14:32:56;;;;;;;5.68;1.85;;;;;;;;;;7344321;19;20022;-75
2023/05/06 14:35:21;;;;;;;4.97;1.50;;;;;;;;;;7315432;19;20487;-76
2023/05/06 14:37:46;;;;;;;6.50;1.88;;;;;;;;;;7346999;19;20051;-75
2023/05/06 14:40:12;;;;;;;5.80;1.70;;;;;;;;;;7356107;19;20540;-75
2023/05/06 14:42:37;;;;;;;5.75;2.05;;;;;;;;;;7358585;19;20043;-74
2023/05/06 14:45:02;;;;;;;6.80;2.30;;;;;;;;;;7355884;19;19995;-75
2023/05/06 14:47:28;;;;;;;6.50;2.58;;;;;;;;;;7354536;19;20862;-75
2023/05/06 14:49:53;;;;;;;5.93;1.97;;;;;;;;;;7357975;19;20008;-75
2023/05/06 14:52:18;;;;;;;5.97;1.80;;;;;;;;;;7360352;19;20011;-75
2023/05/06 14:54:43;;;;;;;9.60;2.55;;;;;;;;;;7361255;19;20882;-74
2023/05/06 14:57:09;;;;;;;5.60;2.20;;;;;;;;;;7352409;19;20392;-75
2023/05/06 14:59:34;;;;;;;7.80;2.20;;;;;;;;;;7365191;19;19986;-75
2023/05/06 15:01:59;;;;;;;5.88;2.33;;;;;;;;;;7348212;19;19991;-75
2023/05/06 15:04:26;;;;;;;6.07;2.40;;;;;;;;;;7359323;19;19994;-75
2023/05/06 15:06:51;;;;;;;9.27;2.70;;;;;;;;;;7361600;19;20018;-75
2023/05/06 15:09:16;;;;;;;5.80;2.20;;;;;;;;;;7363441;19;20408;-75
2023/05/06 15:11:43;;;;;;;5.60;2.23;;;;;;;;;;7362081;19;20251;-75
2023/05/06 15:14:08;;;;;;;6.43;2.22;;;;;;;;;;7366547;19;20761;-75
2023/05/06 15:16:33;;;;;;;7.85;2.85;;;;;;;;;;7365783;19;20003;-75
2023/05/06 15:18:58;;;;;;;4.93;2.10;;;;;;;;;;7363549;19;20411;-75
2023/05/06 15:21:23;;;;;;;6.77;2.43;;;;;;;;;;7361667;19;20892;-75
2023/05/06 15:23:48;;;;;;;6.27;2.40;;;;;;;;;;7359430;19;20244;-75
2023/05/06 15:26:13;;;;;;;6.07;2.28;;;;;;;;;;7357481;19;19998;-75
2023/05/06 15:28:39;;;;;;;6.30;2.33;;;;;;;;;;7359634;19;20002;-75
2023/05/06 15:31:04;;;;;;;5.97;2.37;;;;;;;;;;7361302;19;20321;-75
2023/05/06 15:33:29;;;;;;;6.40;2.60;;;;;;;;;;7359223;19;20048;-75
2023/05/06 15:35:54;;;;;;;5.93;2.07;;;;;;;;;;7361867;19;20006;-75
2023/05/06 15:38:19;;;;;;;8.57;2.50;;;;;;;;;;7362906;19;20261;-75
2023/05/06 15:40:48;;;;;;;6.67;2.80;;;;;;;;;;7364103;19;20113;-75
2023/05/06 15:43:13;;;;;;;6.50;2.17;;;;;;;;;;7363097;19;20307;-75
2023/05/06 15:45:38;;;;;;;6.07;2.60;;;;;;;;;;7360756;19;20367;-75
2023/05/06 15:48:03;;;;;;;5.43;2.00;;;;;;;;;;7357585;19;20653;-75
2023/05/06 15:50:29;;;;;;;6.40;2.13;;;;;;;;;;7363960;19;20391;-75
2023/05/06 15:52:54;;;;;;;7.00;2.20;;;;;;;;;;7368080;19;20424;-75
2023/05/06 15:55:19;;;;;;;6.97;2.17;;;;;;;;;;7362682;19;20259;-75
2023/05/06 15:57:45;;;;;;;6.68;2.00;;;;;;;;;;7364878;19;20278;-75
2023/05/06 16:00:10;;;;;;;7.88;2.20;;;;;;;;;;7362400;19;20322;-75
2023/05/06 16:02:36;;;;;;;7.10;2.20;;;;;;;;;;7367028;19;20459;-75
2023/05/06 16:05:02;;;;;;;5.32;2.20;;;;;;;;;;7359569;19;20289;-75
2023/05/06 16:07:28;;;;;;;4.60;1.75;;;;;;;;;;7366951;19;20003;-75
2023/05/06 16:09:53;;;;;;;6.43;1.88;;;;;;;;;;7365351;19;20006;-75
2023/05/06 16:12:19;;;;;;;5.37;1.60;;;;;;;;;;7360344;19;20005;-75
2023/05/06 16:14:44;;;;;;;5.47;1.50;;;;;;;;;;7360279;19;20248;-75
2023/05/06 16:17:09;;;;;;;4.10;1.50;;;;;;;;;;7345143;19;20010;-75
2023/05/06 16:19:34;;;;;;;8.07;1.60;;;;;;;;;;7355609;19;20342;-75
2023/05/06 16:22:00;;;;;;;6.68;1.55;;;;;;;;;;7358094;19;20037;-75
2023/05/06 16:24:25;;;;;;;4.80;1.50;;;;;;;;;;7360960;19;20362;-75
2023/05/06 16:26:50;;;;;;;4.17;1.37;;;;;;;;;;7360748;19;19994;-75
2023/05/06 16:29:19;;;;;;;4.88;1.42;;;;;;;;;;7360704;19;20323;-74
2023/05/06 16:31:44;;;;;;;4.90;1.50;;;;;;;;;;7354999;19;20017;-75
2023/05/06 16:34:09;;;;;;;4.37;1.50;;;;;;;;;;7361984;19;20006;-75
2023/05/06 16:36:34;;;;;;;5.53;1.80;;;;;;;;;;7359733;19;20147;-75
2023/05/06 16:38:59;;;;;;;5.20;1.30;;;;;;;;;;7367115;19;20002;-75
2023/05/06 16:41:25;;;;;;;6.37;1.80;;;;;;;;;;7362783;19;19994;-75
2023/05/06 16:43:50;;;;;;;4.30;1.60;;;;;;;;;;7360760;19;20010;-75
2023/05/06 16:46:15;;;;;;;4.87;1.47;;;;;;;;;;7361048;19;20010;-75
2023/05/06 16:48:40;;;;;;;4.82;1.30;;;;;;;;;;7361168;19;20075;-75
2023/05/06 16:51:05;;;;;;;4.82;1.58;;;;;;;;;;7357706;19;20414;-75
2023/05/06 16:53:30;;;;;;;4.82;1.60;;;;;;;;;;7364472;19;20031;-75
2023/05/06 16:55:56;;;;;;;4.68;1.13;;;;;;;;;;7361853;19;20023;-75
2023/05/06 16:58:21;;;;;;;6.40;1.70;;;;;;;;;;7355926;19;20092;-75
2023/05/06 17:00:46;;;;;;;4.17;1.30;;;;;;;;;;7362319;19;20690;-75
2023/05/06 17:03:11;;;;;;;4.40;1.50;;;;;;;;;;7355552;19;20774;-75
2023/05/06 17:05:36;;;;;;;5.27;1.60;;;;;;;;;;7363024;19;20247;-75
2023/05/06 17:08:04;;;;;;;3.77;1.40;;;;;;;;;;7364013;19;20250;-75
2023/05/06 17:10:30;;;;;;;5.72;1.50;;;;;;;;;;7360758;19;20018;-75
2023/05/06 17:12:55;;;;;;;4.65;1.60;;;;;;;;;;7358712;19;20404;-75
2023/05/06 17:15:21;;;;;;;4.13;1.48;;;;;;;;;;7356764;19;20006;-75
2023/05/06 17:17:46;;;;;;;3.00;1.15;;;;;;;;;;7365890;19;20002;-75
2023/05/06 17:20:12;;;;;;;5.30;1.33;;;;;;;;;;7347731;19;20015;-74
2023/05/06 17:22:37;;;;;;;3.53;1.27;;;;;;;;;;7355974;19;20021;-74
2023/05/06 17:25:02;;;;;;;4.95;1.70;;;;;;;;;;7347091;19;20007;-74
2023/05/06 17:27:27;;;;;;;5.00;1.55;;;;;;;;;;7353808;19;20021;-74
2023/05/06 17:29:53;;;;;;;4.47;1.40;;;;;;;;;;7356781;19;20023;-74
2023/05/06 17:32:18;;;;;;;6.30;1.97;;;;;;;;;;7345797;19;20019;-74
2023/05/06 17:34:44;;;;;;;4.85;1.33;;;;;;;;;;7334189;19;20291;-75
2023/05/06 17:37:09;;;;;;;6.15;3.38;;;;;;;;;;7337338;19;20023;-74
2023/05/06 17:39:37;;;;;;;4.53;1.95;;;;;;;;;;7359699;19;20436;-75
2023/05/06 17:42:02;;;;;;;5.60;2.35;;;;;;;;;;7342307;19;20003;-74
2023/05/06 17:44:27;;;;;;;8.52;3.00;;;;;;;;;;7353446;19;20541;-75
2023/05/06 17:46:52;;;;;;;8.05;2.67;;;;;;;;;;7350892;19;20011;-74
2023/05/06 17:49:17;;;;;;;6.13;2.23;;;;;;;;;;7349334;19;20765;-74
2023/05/06 17:51:44;;;;;;;6.17;2.63;;;;;;;;;;7350461;19;20242;-74
2023/05/06 17:54:10;;;;;;;6.03;2.20;;;;;;;;;;7360016;19;19998;-74
2023/05/06 17:56:35;;;;;;;7.03;2.20;;;;;;;;;;7344516;19;20017;-74
2023/05/06 17:59:01;;;;;;;5.68;2.25;;;;;;;;;;7360543;19;20010;-74
2023/05/06 18:01:27;;;;;;;7.07;2.40;;;;;;;;;;7362287;19;20491;-74
2023/05/06 18:03:53;;;;;;;6.35;2.05;;;;;;;;;;7359263;19;20008;-74
2023/05/06 18:06:18;;;;;;;6.97;2.20;;;;;;;;;;7341827;19;19995;-73
2023/05/06 18:08:43;;;;;;;4.27;1.80;;;;;;;;;;7363365;19;20007;-74
2023/05/06 18:11:08;;;;;;;4.82;1.88;;;;;;;;;;7364373;19;20395;-74
2023/05/06 18:13:35;;;;;;;6.83;2.33;;;;;;;;;;7353445;19;20002;-73
2023/05/06 18:16:00;;;;;;;8.43;2.50;;;;;;;;;;7344385;19;20633;-72
2023/05/06 18:18:25;;;;;;;7.10;2.60;;;;;;;;;;7353207;19;20496;-74
2023/05/06 18:20:50;;;;;;;7.30;2.63;;;;;;;;;;7354947;19;20141;-73
2023/05/06 18:23:15;;;;;;;6.67;2.43;;;;;;;;;;7358048;19;20263;-74
2023/05/06 18:25:41;;;;;;;6.07;2.73;;;;;;;;;;7359417;19;20019;-73
2023/05/06 18:28:06;;;;;;;7.70;3.10;;;;;;;;;;7343701;19;20546;-74
2023/05/06 18:30:31;;;;;;;6.43;2.70;;;;;;;;;;7356594;19;20260;-73
2023/05/06 18:32:57;;;;;;;5.22;2.38;;;;;;;;;;7354141;19;19994;-73
2023/05/06 18:35:22;;;;;;;9.07;2.40;;;;;;;;;;7334426;19;20136;-74
2023/05/06 18:37:47;;;;;;;7.85;2.55;;;;;;;;;;7343785;19;20085;-73
2023/05/06 18:40:13;;;;;;;5.63;2.20;;;;;;;;;;7351051;19;19999;-73
2023/05/06 18:42:38;;;;;;;5.72;2.30;;;;;;;;;;7355208;19;20267;-74
2023/05/06 18:45:05;;;;;;;8.07;2.50;;;;;;;;;;7349038;19;20015;-74
2023/05/06 18:47:31;;;;;;;6.55;2.50;;;;;;;;;;7355562;19;20440;-73
2023/05/06 18:49:59;;;;;;;5.57;2.38;;;;;;;;;;7348597;19;20370;-73
2023/05/06 18:52:24;;;;;;;9.63;2.35;;;;;;;;;;7356464;19;20006;-74
2023/05/06 18:54:49;;;;;;;7.97;2.10;;;;;;;;;;7354786;19;20428;-74
2023/05/06 18:57:14;;;;;;;7.60;2.42;;;;;;;;;;7346311;19;20331;-74
2023/05/06 18:59:40;;;;;;;6.88;2.50;;;;;;;;;;7352283;19;20571;-74
2023/05/06 19:02:05;;;;;;;6.70;2.30;;;;;;;;;;7354694;19;20087;-73
2023/05/06 19:04:30;;;;;;;7.00;2.22;;;;;;;;;;7348737;19;20647;-74
2023/05/06 19:06:56;;;;;;;5.33;2.27;;;;;;;;;;7362196;19;19998;-74
2023/05/06 19:09:21;;;;;;;5.78;1.95;;;;;;;;;;7360337;19;20187;-74
2023/05/06 19:11:46;;;;;;;6.15;2.20;;;;;;;;;;7365982;19;20055;-74
2023/05/06 19:14:11;;;;;;;5.68;1.98;;;;;;;;;;7354490;19;20013;-74
2023/05/06 19:16:37;;;;;;;5.43;2.20;;;;;;;;;;7357480;19;20504;-74
2023/05/06 19:19:05;;;;;;;8.77;3.35;;;;;;;;;;7356900;19;20205;-73
2023/05/06 19:21:31;;;;;;;8.52;4.60;;;;;;;;;;7357688;19;20017;-74
2023/05/06 19:23:58;;;;;;;9.73;5.20;;;;;;;;;;7360722;19;20365;-73
2023/05/06 19:26:23;;;;;;;9.02;4.82;;;;;;;;;;7347557;19;20350;-74
2023/05/06 19:28:49;;;;;;;9.52;4.97;;;;;;;;;;7343876;19;20061;-74
2023/05/06 19:31:14;;;;;;;9.70;5.27;;;;;;;;;;7356559;19;20002;-74
2023/05/06 19:33:39;;;;;;;10.30;6.53;;;;;;;;;;7360103;19;20090;-74
2023/05/06 19:36:05;;;;;;;11.38;6.10;;;;;;;;;;7361003;19;20030;-74
2023/05/06 19:38:30;;;;;;;10.65;5.15;;;;;;;;;;7360000;19;20372;-73
2023/05/06 19:40:55;;;;;;;12.43;5.40;;;;;;;;;;7359580;19;20378;-74
2023/05/06 19:43:23;;;;;;;11.60;5.18;;;;;;;;;;7361904;19;20319;-74
2023/05/06 19:45:48;;;;;;;9.82;5.13;;;;;;;;;;7363153;19;20066;-74
2023/05/06 19:48:14;;;;;;;11.13;4.80;;;;;;;;;;7356505;19;20351;-75
2023/05/06 19:50:40;;;;;;;9.30;4.30;;;;;;;;;;7355136;19;20262;-74
2023/05/06 19:53:05;;;;;;;8.07;4.07;;;;;;;;;;7353449;19;20002;-74
2023/05/06 19:55:30;;;;;;;7.87;4.13;;;;;;;;;;7360500;19;20518;-73
2023/05/06 19:57:56;;;;;;;9.45;3.80;;;;;;;;;;7361649;19;20308;-74
2023/05/06 20:00:21;;;;;;;8.10;4.53;;;;;;;;;;7355364;19;20468;-73
2023/05/06 20:02:46;;;;;;;9.55;4.05;;;;;;;;;;7364934;19;20005;-74
2023/05/06 20:05:12;;;;;;;9.47;4.47;;;;;;;;;;7358272;19;20002;-74
2023/05/06 20:07:37;;;;;;;7.63;3.92;;;;;;;;;;7359072;19;20523;-74
2023/05/06 20:10:02;;;;;;;8.33;4.50;;;;;;;;;;7359559;19;20014;-74
2023/05/06 20:12:29;;;;;;;9.98;4.05;;;;;;;;;;7353097;19;20243;-74
2023/05/06 20:14:54;;;;;;;11.38;4.47;;;;;;;;;;7358873;19;20099;-74
2023/05/06 20:17:20;;;;;;;8.65;3.95;;;;;;;;;;7352573;19;20058;-74
2023/05/06 20:19:45;;;;;;;9.88;4.07;;;;;;;;;;7348625;19;19999;-74
2023/05/06 20:22:10;;;;;;;9.30;4.22;;;;;;;;;;7362733;19;20026;-73
2023/05/06 20:24:36;;;;;;;11.52;4.55;;;;;;;;;;7346315;19;20002;-74
2023/05/06 20:27:01;;;;;;;11.05;5.07;;;;;;;;;;7319560;19;20007;-73
2023/05/06 20:29:26;;;;;;;10.73;4.90;;;;;;;;;;7344608;19;20451;-74
2023/05/06 20:31:51;;;;;;;10.65;4.28;;;;;;;;;;7340691;19;20010;-73
2023/05/06 20:34:17;;;;;;;10.18;4.53;;;;;;;;;;7350793;19;20048;-73
2023/05/06 20:36:43;;;;;;;9.48;4.57;;;;;;;;;;7346592;19;20013;-73
2023/05/06 20:39:11;;;;;;;10.10;4.88;;;;;;;;;;7356661;19;20415;-73
2023/05/06 20:41:37;;;;;;;10.02;4.63;;;;;;;;;;7352854;19;20079;-73
2023/05/06 20:44:02;;;;;;;8.88;4.63;;;;;;;;;;7350931;19;20086;-73
2023/05/06 20:46:27;;;;;;;9.55;5.15;;;;;;;;;;7342806;19;19998;-74
2023/05/06 20:48:52;;;;;;;9.73;4.90;;;;;;;;;;7356654;19;20018;-73
2023/05/06 20:51:18;;;;;;;10.40;5.03;;;;;;;;;;7329427;19;20006;-74
2023/05/06 20:53:45;;;;;;;7.68;4.45;;;;;;;;;;7345639;19;20241;-73
2023/05/06 20:56:17;;;;;;;13.10;4.00;;;;;;;;;;7344654;19;19994;-73
2023/05/06 20:58:43;;;;;;;8.40;3.80;;;;;;;;;;7352152;19;20581;-73
2023/05/06 21:01:08;;;;;;;9.70;3.60;;;;;;;;;;7345913;19;21286;-73
2023/05/06 21:03:33;;;;;;;8.23;3.20;;;;;;;;;;7347188;19;20005;-73
2023/05/06 21:05:59;;;;;;;7.63;3.28;;;;;;;;;;7359053;19;20356;-73
2023/05/06 21:08:24;;;;;;;6.72;3.22;;;;;;;;;;7359219;19;20010;-73
2023/05/06 21:10:49;;;;;;;7.00;2.70;;;;;;;;;;7346028;19;20256;-72
2023/05/06 21:13:14;;;;;;;7.88;3.25;;;;;;;;;;7351172;19;20259;-73
2023/05/06 21:15:39;;;;;;;6.53;2.92;;;;;;;;;;7343925;19;20075;-74
2023/05/06 21:18:05;;;;;;;5.90;2.83;;;;;;;;;;7330158;19;20003;-74
2023/05/06 21:20:30;;;;;;;7.03;3.30;;;;;;;;;;7348008;19;20489;-73
2023/05/06 21:22:55;;;;;;;6.07;3.10;;;;;;;;;;7347782;19;20036;-73
2023/05/06 21:25:20;;;;;;;6.67;3.13;;;;;;;;;;7347096;19;19995;-74
2023/05/06 21:27:45;;;;;;;7.13;3.50;;;;;;;;;;7355072;19;20110;-74
2023/05/06 21:30:11;;;;;;;7.63;3.28;;;;;;;;;;7364950;19;19999;-74
2023/05/06 21:32:36;;;;;;;8.18;3.13;;;;;;;;;;7358447;19;20379;-74
2023/05/06 21:35:01;;;;;;;8.67;3.30;;;;;;;;;;7341474;19;20433;-74
2023/05/06 21:37:27;;;;;;;7.32;3.30;;;;;;;;;;7355629;19;20354;-74
2023/05/06 21:39:52;;;;;;;7.85;3.17;;;;;;;;;;7365320;19;20011;-73
2023/05/06 21:42:18;;;;;;;7.57;2.80;;;;;;;;;;7357575;19;20015;-73
2023/05/06 21:44:43;;;;;;;9.17;3.20;;;;;;;;;;7358157;19;20009;-73
2023/05/06 21:47:08;;;;;;;7.93;3.35;;;;;;;;;;7363958;19;20814;-73
2023/05/06 21:49:33;;;;;;;6.70;2.97;;;;;;;;;;7362665;19;20020;-73
2023/05/06 21:51:58;;;;;;;6.15;3.25;;;;;;;;;;7367662;19;20594;-73
2023/05/06 21:54:24;;;;;;;7.50;3.45;;;;;;;;;;7366054;19;20347;-74
2023/05/06 21:56:49;;;;;;;12.30;3.53;;;;;;;;;;7365267;19;19994;-74
2023/05/06 21:59:14;;;;;;;7.43;3.33;;;;;;;;;;7364968;19;20360;-73
2023/05/06 22:01:39;;;;;;;9.37;3.17;;;;;;;;;;7330527;19;20783;-73
2023/05/06 22:04:09;;;;;;;7.10;2.97;;;;;;;;;;7362265;19;20244;-73
2023/05/06 22:06:34;;;;;;;5.90;2.75;;;;;;;;;;7353498;19;20087;-73
2023/05/06 22:09:00;;;;;;;9.30;3.00;;;;;;;;;;7358276;19;19998;-73
2023/05/06 22:11:25;;;;;;;6.77;3.40;;;;;;;;;;7357745;19;20782;-73
2023/05/06 22:13:50;;;;;;;6.50;3.43;;;;;;;;;;7357348;19;20655;-73
2023/05/06 22:16:15;;;;;;;8.35;3.78;;;;;;;;;;7352385;19;20006;-73
2023/05/06 22:18:41;;;;;;;9.82;3.15;;;;;;;;;;7351205;19;20411;-73
2023/05/06 22:21:07;;;;;;;7.07;2.50;;;;;;;;;;7361621;19;20425;-73
2023/05/06 22:23:32;;;;;;;8.25;2.90;;;;;;;;;;7356788;19;20464;-73
2023/05/06 22:25:57;;;;;;;7.40;2.88;;;;;;;;;;7352823;19;20381;-74
2023/05/06 22:28:22;;;;;;;6.38;2.97;;;;;;;;;;7355647;19;20003;-73
2023/05/06 22:30:48;;;;;;;5.70;2.83;;;;;;;;;;7354931;19;20519;-73
2023/05/06 22:33:13;;;;;;;7.38;2.55;;;;;;;;;;7352926;19;20852;-73
2023/05/06 22:35:38;;;;;;;5.05;2.38;;;;;;;;;;7355277;19;20009;-73
2023/05/06 22:38:03;;;;;;;7.50;2.78;;;;;;;;;;7355804;19;20031;-73
2023/05/06 22:40:28;;;;;;;7.30;3.00;;;;;;;;;;7354497;19;19995;-73
2023/05/06 22:42:54;;;;;;;7.30;3.13;;;;;;;;;;7352790;19;20326;-73
2023/05/06 22:45:19;;;;;;;5.85;2.60;;;;;;;;;;7358875;19;20070;-73
2023/05/06 22:47:44;;;;;;;7.00;2.77;;;;;;;;;;7359321;19;20370;-73
2023/05/06 22:50:10;;;;;;;6.30;2.95;;;;;;;;;;7357311;19;20031;-74
2023/05/06 22:52:36;;;;;;;7.05;2.75;;;;;;;;;;7355073;19;20123;-71
2023/05/06 22:55:02;;;;;;;5.95;2.58;;;;;;;;;;7356493;19;20009;-72
2023/05/06 22:57:27;;;;;;;5.53;2.60;;;;;;;;;;7360311;19;20302;-72
2023/05/06 22:59:52;;;;;;;6.40;2.97;;;;;;;;;;7353371;19;19999;-72
2023/05/06 23:02:17;;;;;;;5.80;2.28;;;;;;;;;;7356821;19;20455;-71
2023/05/06 23:04:42;;;;;;;6.20;2.40;;;;;;;;;;7351908;19;20046;-72
2023/05/06 23:07:08;;;;;;;7.22;2.33;;;;;;;;;;7355081;19;20058;-71
2023/05/06 23:09:33;;;;;;;6.37;2.13;;;;;;;;;;7351868;19;20408;-71
2023/05/06 23:11:58;;;;;;;6.43;2.10;;;;;;;;;;7355959;19;20251;-72
2023/05/06 23:14:23;;;;;;;6.87;2.50;;;;;;;;;;7357880;19;20243;-71
2023/05/06 23:16:48;;;;;;;5.03;2.17;;;;;;;;;;7350200;19;20007;-72
2023/05/06 23:19:14;;;;;;;5.07;2.50;;;;;;;;;;7349338;19;20070;-71
2023/05/06 23:21:40;;;;;;;5.60;2.47;;;;;;;;;;7357428;19;20092;-72
2023/05/06 23:24:07;;;;;;;5.57;2.60;;;;;;;;;;7356628;19;21058;-71
2023/05/06 23:26:32;;;;;;;5.85;2.40;;;;;;;;;;7351541;19;20002;-71
2023/05/06 23:28:57;;;;;;;5.88;2.42;;;;;;;;;;7345312;19;20001;-72
2023/05/06 23:31:23;;;;;;;5.37;2.60;;;;;;;;;;7357084;19;20005;-72
2023/05/06 23:33:48;;;;;;;5.55;2.38;;;;;;;;;;7351728;19;20561;-72
2023/05/06 23:36:14;;;;;;;6.60;2.50;;;;;;;;;;7355507;19;20764;-72
2023/05/06 23:38:39;;;;;;;6.47;2.60;;;;;;;;;;7354032;19;20086;-72
2023/05/06 23:41:05;;;;;;;4.70;2.17;;;;;;;;;;7356613;19;20488;-72
2023/05/06 23:43:30;;;;;;;4.60;2.30;;;;;;;;;;7337342;19;20006;-71
2023/05/06 23:45:55;;;;;;;6.22;2.45;;;;;;;;;;7355078;19;20002;-72
2023/05/06 23:48:20;;;;;;;7.15;3.03;;;;;;;;;;7360094;19;20418;-71
2023/05/06 23:50:47;;;;;;;6.13;2.97;;;;;;;;;;7360682;19;20002;-71
2023/05/06 23:53:12;;;;;;;5.50;2.15;;;;;;;;;;7361768;19;20019;-71
2023/05/06 23:55:37;;;;;;;7.17;2.77;;;;;;;;;;7361312;19;20620;-72
2023/05/06 23:58:02;;;;;;;6.72;2.83;;;;;;;;;;7359641;19;20355;-71
